Time;durP1;ratioP1;P1;durP2;ratioP2;P2;SDS_P1;SDS_P2;PMS_P1;PMS_P2;Temp;Humidity;BMP_temperature;BMP_pressure;BME280_temperature;BME280_humidity;BME280_pressure;Samples;Min_cycle;Max_cycle;Signal;HPM_P1;HPM_P2
2023/06/26 00:01:47;;;;;;;7.80;6.70;;;;;;;17.80;54.14;100953.16;105371;1287;72861;-84
2023/06/26 00:04:35;;;;;;;7.40;6.30;;;;;;;17.79;54.14;100954.06;105388;1288;67772;-84
2023/06/26 00:07:21;;;;;;;7.10;6.30;;;;;;;17.76;54.16;100954.70;105345;1286;71519;-84
2023/06/26 00:10:08;;;;;;;6.50;5.90;;;;;;;17.69;54.19;100954.12;105351;1287;61284;-83
2023/06/26 00:12:54;;;;;;;6.20;5.30;;;;;;;17.61;54.35;100951.14;105539;1286;61243;-83
2023/06/26 00:15:40;;;;;;;5.90;5.40;;;;;;;17.56;54.39;100949.77;105448;1287;74038;-83
2023/06/26 00:18:26;;;;;;;5.40;5.00;;;;;;;17.51;54.38;100952.73;105498;1286;69648;-83
2023/06/26 00:21:12;;;;;;;6.80;5.80;;;;;;;17.51;54.46;100953.11;105512;1288;74665;-83
2023/06/26 00:23:58;;;;;;;6.90;6.20;;;;;;;17.48;54.50;100950.42;105234;1293;61154;-83
2023/06/26 00:26:48;;;;;;;6.60;6.10;;;;;;;17.43;54.72;100950.95;105512;1285;65810;-83
2023/06/26 00:29:35;;;;;;;6.30;5.70;;;;;;;17.39;54.66;100950.23;105467;1288;74372;-83
2023/06/26 00:32:21;;;;;;;6.40;5.80;;;;;;;17.38;54.87;100951.86;105365;1288;68545;-84
2023/06/26 00:35:07;;;;;;;5.80;5.40;;;;;;;17.38;54.78;100948.39;105464;1286;71298;-84
2023/06/26 00:37:53;;;;;;;5.40;5.00;;;;;;;17.36;54.86;100946.36;105418;1289;61214;-83
2023/06/26 00:40:39;;;;;;;6.50;6.00;;;;;;;17.33;54.88;100945.76;105474;1286;61240;-83
2023/06/26 00:43:26;;;;;;;6.40;5.80;;;;;;;17.32;55.04;100946.69;105500;1289;75017;-83
2023/06/26 00:46:14;;;;;;;10.20;5.00;;;;;;;17.31;55.03;100945.66;105353;1289;67483;-83
2023/06/26 00:49:03;;;;;;;5.80;5.40;;;;;;;17.31;55.01;100945.16;105551;1287;72249;-83
2023/06/26 00:51:49;;;;;;;7.10;5.60;;;;;;;17.29;55.04;100947.00;105310;1288;61317;-83
2023/06/26 00:54:35;;;;;;;;;;;;;;;17.26;55.05;100942.73;105351;1285;61234;-83
2023/06/26 00:57:22;;;;;;;6.10;5.60;;;;;;;17.20;55.15;100936.52;105447;1285;75616;-83
2023/06/26 01:00:10;;;;;;;6.80;5.40;;;;;;;17.18;55.21;100935.02;105299;1288;67442;-83
2023/06/26 01:02:58;;;;;;;7.70;7.00;;;;;;;17.16;55.38;100934.59;105538;1288;72126;-86
2023/06/26 01:05:49;;;;;;;6.80;6.20;;;;;;;17.07;55.31;100929.73;105523;1286;59234;-86
2023/06/26 01:08:35;;;;;;;6.00;5.50;;;;;;;17.00;55.45;100932.77;105467;1285;63355;-86
2023/06/26 01:11:21;;;;;;;6.50;5.90;;;;;;;16.98;55.53;100929.03;105412;1288;73408;-83
2023/06/26 01:14:07;;;;;;;6.60;6.10;;;;;;;16.96;55.59;100931.73;105320;1287;67202;-83
2023/06/26 01:16:57;;;;;;;6.40;5.80;;;;;;;16.94;55.56;100929.87;105460;1287;71187;-83
2023/06/26 01:19:44;;;;;;;7.00;5.90;;;;;;;16.90;55.66;100925.65;105374;1287;61097;-83
2023/06/26 01:22:44;;;;;;;7.10;6.30;;;;;;;16.83;55.74;100922.95;105394;1286;59289;-83
2023/06/26 01:25:43;;;;;;;5.10;4.70;;;;;;;16.80;55.72;100926.55;105544;1286;73129;-83
2023/06/26 01:28:31;;;;;;;5.70;5.20;;;;;;;16.77;55.85;100923.70;105448;1288;67138;-83
2023/06/26 01:31:19;;;;;;;7.40;5.00;;;;;;;16.73;55.89;100921.42;105318;1286;71280;-83
2023/06/26 01:34:06;;;;;;;7.40;5.50;;;;;;;16.67;55.92;100920.40;105285;1287;59382;-83
2023/06/26 01:36:52;;;;;;;6.40;5.40;;;;;;;16.67;56.00;100917.47;105310;1286;60511;-84
2023/06/26 01:39:38;;;;;;;7.20;6.20;;;;;;;16.64;56.02;100916.50;105328;1286;73190;-84
2023/06/26 01:42:24;;;;;;;6.60;6.10;;;;;;;16.54;56.25;100915.64;105391;1290;67788;-84
2023/06/26 01:45:15;;;;;;;5.60;5.20;;;;;;;16.48;56.26;100917.23;105222;1288;228310;-84
2023/06/26 01:48:04;;;;;;;6.70;5.80;;;;;;;16.46;56.25;100913.83;105462;1287;61171;-84
2023/06/26 01:50:53;;;;;;;5.50;5.10;;;;;;;16.43;56.37;100910.30;105435;1287;59832;-84
2023/06/26 01:53:43;;;;;;;5.80;4.70;;;;;;;16.40;56.44;100905.17;105497;1285;73381;-84
2023/06/26 01:56:31;;;;;;;6.20;5.70;;;;;;;16.40;56.47;100905.02;105517;1287;70357;-84
2023/06/26 01:59:19;;;;;;;6.00;5.50;;;;;;;16.39;56.51;100907.48;105305;1288;71237;-84
2023/06/26 02:02:07;;;;;;;7.40;6.50;;;;;;;16.39;56.58;100904.85;105383;1286;61142;-84
2023/06/26 02:04:53;;;;;;;6.50;5.90;;;;;;;16.41;56.66;100900.63;106463;1288;59110;-84
2023/06/26 02:07:39;;;;;;;6.20;5.70;;;;;;;16.35;56.69;100898.75;106375;1286;74594;-84
2023/06/26 02:10:25;;;;;;;6.30;5.70;;;;;;;16.30;56.83;100895.79;106392;1286;67073;-85
2023/06/26 02:13:11;;;;;;;6.60;6.10;;;;;;;16.33;56.90;100894.80;106376;1286;71756;-84
2023/06/26 02:15:58;;;;;;;5.00;4.50;;;;;;;16.35;56.85;100891.77;106470;1286;59417;-84
2023/06/26 02:18:43;;;;;;;5.60;5.10;;;;;;;16.36;56.74;100891.94;106585;1286;59433;-85
2023/06/26 02:21:29;;;;;;;7.30;5.30;;;;;;;16.34;56.85;100892.36;106376;1286;72427;-84
2023/06/26 02:24:16;;;;;;;6.90;5.50;;;;;;;16.31;56.87;100893.17;106096;1286;67370;-84
2023/06/26 02:27:02;;;;;;;7.10;6.50;;;;;;;16.23;57.04;100897.42;105489;1288;71223;-84
2023/06/26 02:29:48;;;;;;;7.40;6.30;;;;;;;16.20;57.15;100898.21;105272;1285;61246;-84
2023/06/26 02:32:34;;;;;;;7.20;6.70;;;;;;;16.23;57.18;100895.50;105340;1286;59258;-84
2023/06/26 02:35:20;;;;;;;8.30;6.20;;;;;;;16.24;57.26;100892.52;105323;1287;73274;-84
2023/06/26 02:38:06;;;;;;;7.00;6.30;;;;;;;16.21;57.31;100890.72;105341;1286;67308;-84
2023/06/26 02:40:53;;;;;;;7.10;6.40;;;;;;;16.16;57.38;100890.52;105298;1286;71223;-84
2023/06/26 02:43:39;;;;;;;7.30;6.60;;;;;;;16.15;57.37;100890.93;105327;1286;62297;-84
2023/06/26 02:46:25;;;;;;;6.40;5.90;;;;;;;16.13;57.50;100891.67;105469;1288;59472;-84
2023/06/26 02:49:11;;;;;;;6.80;6.30;;;;;;;16.09;57.53;100888.73;105415;1288;73199;-84
2023/06/26 02:51:57;;;;;;;7.40;6.70;;;;;;;16.04;57.58;100890.63;105399;1287;67301;-84
2023/06/26 02:54:43;;;;;;;7.00;6.30;;;;;;;16.04;57.53;100889.95;105293;1290;71197;-84
2023/06/26 02:57:29;;;;;;;11.60;7.00;;;;;;;16.02;57.63;100889.83;105485;1286;60933;-84
2023/06/26 03:00:16;;;;;;;7.60;6.30;;;;;;;15.97;57.70;100890.55;105416;1291;61283;-84
2023/06/26 03:03:03;;;;;;;7.30;6.70;;;;;;;15.94;57.77;100887.84;105371;1286;73299;-84
2023/06/26 03:05:49;;;;;;;6.10;5.60;;;;;;;15.90;57.87;100886.26;105567;1291;67831;-84
2023/06/26 03:08:37;;;;;;;6.10;5.60;;;;;;;15.92;57.88;100887.58;105288;1291;71097;-84
2023/06/26 03:11:23;;;;;;;6.40;5.10;;;;;;;15.94;57.81;100892.02;105346;1288;61059;-84
2023/06/26 03:14:09;;;;;;;7.60;6.60;;;;;;;15.97;57.83;100890.20;105521;1285;61149;-84
2023/06/26 03:16:58;;;;;;;6.90;6.20;;;;;;;15.98;57.87;100886.16;105414;1286;75518;-84
2023/06/26 03:19:44;;;;;;;6.20;5.60;;;;;;;15.98;57.92;100886.66;105462;1288;67169;-84
2023/06/26 03:22:31;;;;;;;6.70;6.20;;;;;;;15.98;57.96;100884.95;105305;1287;71146;-84
2023/06/26 03:25:17;;;;;;;6.30;5.80;;;;;;;16.00;58.05;100886.94;105513;1286;61123;-84
2023/06/26 03:28:03;;;;;;;7.00;6.40;;;;;;;16.05;58.05;100883.14;105495;1285;61187;-84
2023/06/26 03:30:49;;;;;;;7.80;7.10;;;;;;;16.05;58.12;100884.34;105428;1286;73322;-84
2023/06/26 03:33:37;;;;;;;10.40;7.20;;;;;;;16.03;58.11;100884.94;105538;1286;67459;-84
2023/06/26 03:36:23;;;;;;;7.20;6.60;;;;;;;16.07;58.15;100888.25;105339;1288;71199;-84
2023/06/26 03:39:09;;;;;;;7.70;6.90;;;;;;;16.12;58.25;100890.34;105447;1286;61186;-84
2023/06/26 03:42:00;;;;;;;8.00;7.20;;;;;;;16.15;58.35;100890.40;105335;1286;61762;-84
2023/06/26 03:44:46;;;;;;;7.90;6.90;;;;;;;16.12;58.28;100889.66;105579;1289;74463;-84
2023/06/26 03:47:32;;;;;;;7.50;6.80;;;;;;;16.12;58.51;100889.83;105512;1286;68347;-84
2023/06/26 03:50:19;;;;;;;8.50;7.60;;;;;;;16.11;58.62;100891.23;105494;1288;72524;-84
2023/06/26 03:53:05;;;;;;;;;;;;;;;16.16;58.66;100892.44;105413;1288;61682;-84
2023/06/26 03:55:51;;;;;;;7.00;6.40;;;;;;;16.22;58.77;100889.65;105464;1287;62868;-84
2023/06/26 03:58:37;;;;;;;;;;;;;;;16.26;58.75;100887.25;105556;1285;73288;-84
2023/06/26 04:01:23;;;;;;;7.10;6.50;;;;;;;16.28;58.71;100882.14;105530;1288;70048;-84
2023/06/26 04:04:10;;;;;;;8.00;6.90;;;;;;;16.33;58.78;100878.30;105293;1291;71118;-84
2023/06/26 04:06:57;;;;;;;8.10;7.30;;;;;;;16.42;58.86;100881.80;105277;1286;61206;-84
2023/06/26 04:09:43;;;;;;;8.00;7.20;;;;;;;16.50;58.87;100884.30;105493;1287;59818;-84
2023/06/26 04:12:29;;;;;;;12.60;7.20;;;;;;;16.67;59.03;100888.90;105531;1286;73506;-84
2023/06/26 04:15:15;;;;;;;8.40;7.50;;;;;;;16.91;58.96;100881.20;105301;1286;68038;-84
2023/06/26 04:18:01;;;;;;;8.10;7.20;;;;;;;17.07;58.87;100880.41;105460;1289;72930;-84
2023/06/26 04:21:08;;;;;;;8.70;7.40;;;;;;;17.16;58.86;100880.59;105505;1286;61371;-84
2023/06/26 04:23:55;;;;;;;8.80;7.80;;;;;;;17.25;59.03;100881.27;105307;1292;59381;-84
2023/06/26 04:26:41;;;;;;;11.20;7.40;;;;;;;17.38;59.04;100881.96;105140;1286;73942;-84
2023/06/26 04:29:31;;;;;;;7.70;6.90;;;;;;;17.66;59.19;100878.06;105220;1294;67496;-85
2023/06/26 04:32:17;;;;;;;11.30;7.70;;;;;;;17.97;58.94;100881.83;105315;1286;71143;-85
2023/06/26 04:35:03;;;;;;;9.40;8.40;;;;;;;18.08;58.99;100881.55;105286;1289;61196;-85
2023/06/26 04:37:49;;;;;;;10.00;7.10;;;;;;;18.11;59.06;100879.62;105226;1285;59724;-84
2023/06/26 04:40:37;;;;;;;8.70;7.60;;;;;;;18.15;59.15;100878.23;105223;1286;76011;-84
2023/06/26 04:43:23;;;;;;;8.70;7.90;;;;;;;18.22;59.16;100877.92;106442;1289;68186;-85
2023/06/26 04:46:33;;;;;;;9.50;8.20;;;;;;;18.31;59.27;100874.73;105557;1286;72272;-85
2023/06/26 04:49:27;;;;;;;9.00;8.20;;;;;;;18.40;59.17;100879.02;105487;1286;60288;-85
2023/06/26 04:52:14;;;;;;;10.50;9.30;;;;;;;18.53;59.16;100876.05;104990;1291;61255;-85
2023/06/26 04:55:15;;;;;;;8.90;8.20;;;;;;;18.69;59.21;100874.79;104893;1289;73284;-85
2023/06/26 04:58:12;;;;;;;9.80;8.90;;;;;;;18.89;59.21;100874.92;104959;1289;67178;-85
2023/06/26 05:01:02;;;;;;;14.30;9.50;;;;;;;19.13;59.16;100876.05;104893;1294;74286;-85
2023/06/26 05:03:57;;;;;;;9.50;8.70;;;;;;;19.48;59.05;100877.52;104926;1292;61398;-86
2023/06/26 05:07:13;;;;;;;10.50;9.20;;;;;;;19.95;58.94;100870.79;104904;1292;61304;-86
2023/06/26 05:10:24;;;;;;;9.60;8.80;;;;;;;20.74;58.70;100872.58;105085;1295;78287;-86
2023/06/26 05:14:18;;;;;;;11.70;8.60;;;;;;;21.48;58.47;100873.67;104934;1292;67478;-86
2023/06/26 05:17:34;;;;;;;10.10;7.90;;;;;;;22.29;58.26;100868.18;104746;1293;71365;-86
2023/06/26 05:21:02;;;;;;;;;;;;;;;;;;;;;
2023/06/26 05:24:32;;;;;;;;;;;;;;;;;;;;;
2023/06/26 05:32:09;;;;;;;;;;;;;;;;;;;;;
2023/06/26 05:35:33;;;;;;;6.40;5.80;;;;;;;25.80;56.35;100865.45;104571;1299;72551;-86
2023/06/26 05:39:32;;;;;;;6.80;5.90;;;;;;;26.49;55.95;100861.71;104486;1297;61249;-87
2023/06/26 05:43:03;;;;;;;9.50;6.20;;;;;;;27.20;55.81;100860.39;104210;1303;61483;-86
2023/06/26 05:46:25;;;;;;;5.50;5.00;;;;;;;27.78;55.52;100857.33;104193;1302;73272;-86
2023/06/26 05:50:37;;;;;;;;;;;;;;;;;;;;;
2023/06/26 05:53:53;;;;;;;;;;;;;;;;;;;;;
2023/06/26 05:57:02;;;;;;;5.60;5.10;;;;;;;28.47;54.13;100851.95;104311;1300;59696;-87
2023/06/26 06:00:10;;;;;;;6.50;5.40;;;;;;;29.07;53.78;100853.69;104292;1299;61202;-86
2023/06/26 06:02:56;;;;;;;8.40;5.20;;;;;;;29.50;53.44;100851.34;105301;1304;73337;-86
2023/06/26 06:05:42;;;;;;;6.80;5.20;;;;;;;29.90;53.05;100848.48;105416;1299;68584;-87
2023/06/26 06:08:28;;;;;;;5.30;4.80;;;;;;;30.11;52.46;100849.59;105235;1292;71445;-86
2023/06/26 06:11:15;;;;;;;5.50;5.00;;;;;;;30.27;51.85;100847.98;104931;1292;61204;-86
2023/06/26 06:14:01;;;;;;;5.70;4.40;;;;;;;30.47;51.58;100853.53;104852;1294;62284;-86
2023/06/26 06:16:47;;;;;;;4.90;4.50;;;;;;;30.67;51.02;100851.86;104867;1298;77826;-86
2023/06/26 06:19:33;;;;;;;5.30;4.30;;;;;;;30.86;50.54;100850.47;105366;1286;67587;-86
2023/06/26 06:22:19;;;;;;;6.30;4.10;;;;;;;31.15;50.31;100845.62;105331;1286;72440;-87
2023/06/26 06:25:06;;;;;;;6.20;4.60;;;;;;;31.31;50.04;100846.23;105413;1285;61189;-85
2023/06/26 06:27:52;;;;;;;5.60;5.10;;;;;;;31.43;49.36;100845.84;105395;1286;59830;-86
2023/06/26 06:30:38;;;;;;;8.40;4.90;;;;;;;31.74;48.77;100840.59;105362;1286;75101;-86
2023/06/26 06:33:24;;;;;;;5.20;4.80;;;;;;;32.28;48.18;100839.73;105554;1287;71395;-86
2023/06/26 06:36:10;;;;;;;;;;;;;;;32.75;47.85;100845.02;105485;1287;71665;-86
2023/06/26 06:38:56;;;;;;;6.50;4.60;;;;;;;33.28;47.38;100846.45;105466;1289;61005;-86
2023/06/26 06:41:42;;;;;;;;;;;;;;;33.86;46.82;100843.56;105474;1291;60201;-86
2023/06/26 06:44:30;;;;;;;4.90;4.50;;;;;;;34.51;46.65;100840.80;105545;1288;74420;-86
2023/06/26 06:47:16;;;;;;;7.30;4.50;;;;;;;35.10;46.02;100842.30;105527;1286;69893;-86
2023/06/26 06:50:07;;;;;;;;;;;;;;;35.69;45.50;100841.58;105497;1291;71222;-86
2023/06/26 06:52:54;;;;;;;5.90;4.40;;;;;;;36.29;45.07;100843.44;105520;1285;61465;-87
2023/06/26 06:55:40;;;;;;;4.30;3.90;;;;;;;36.47;44.26;100842.92;105510;1288;61150;-86
2023/06/26 06:58:26;;;;;;;4.30;3.90;;;;;;;36.47;44.35;100837.59;105417;1288;73364;-85
2023/06/26 07:01:13;;;;;;;4.30;4.00;;;;;;;36.87;43.58;100835.01;105519;1286;69996;-85
2023/06/26 07:03:59;;;;;;;4.50;4.00;;;;;;;36.81;42.77;100837.45;105270;1288;75405;-85
2023/06/26 07:06:45;;;;;;;8.20;4.30;;;;;;;36.85;42.66;100834.58;105397;1286;61275;-85
2023/06/26 07:09:31;;;;;;;4.20;3.90;;;;;;;37.52;41.72;100837.47;105536;1286;61193;-85
2023/06/26 07:12:18;;;;;;;4.30;3.90;;;;;;;38.28;40.57;100831.77;105547;1286;78345;-85
2023/06/26 07:15:05;;;;;;;3.30;3.00;;;;;;;38.85;39.74;100833.63;105567;1284;67176;-85
2023/06/26 07:17:51;;;;;;;3.80;3.50;;;;;;;39.70;38.96;100832.54;105503;1286;71291;-85
2023/06/26 07:20:37;;;;;;;3.70;3.50;;;;;;;40.62;38.47;100833.33;105523;1286;59757;-85
2023/06/26 07:23:23;;;;;;;6.10;3.40;;;;;;;41.20;37.45;100830.61;105532;1285;61388;-85
2023/06/26 07:26:10;;;;;;;4.30;3.30;;;;;;;41.80;36.88;100829.02;105546;1284;73455;-85
2023/06/26 07:28:56;;;;;;;3.50;3.30;;;;;;;41.59;36.26;100827.04;105475;1286;67186;-86
2023/06/26 07:31:44;;;;;;;3.50;3.30;;;;;;;40.67;36.45;100816.05;105563;1286;72290;-85
2023/06/26 07:34:30;;;;;;;3.80;3.50;;;;;;;40.49;35.93;100816.88;105374;1286;61163;-85
2023/06/26 07:37:16;;;;;;;4.10;3.70;;;;;;;40.70;34.73;100815.41;105390;1286;61178;-85
2023/06/26 07:40:04;;;;;;;3.80;3.40;;;;;;;39.91;34.37;100813.84;105427;1285;74723;-85
2023/06/26 07:42:50;;;;;;;3.40;3.20;;;;;;;39.08;34.10;100808.34;105492;1286;67944;-85
2023/06/26 07:45:36;;;;;;;4.00;3.30;;;;;;;38.84;33.78;100807.00;105486;1286;71177;-85
2023/06/26 07:48:22;;;;;;;3.90;3.60;;;;;;;40.07;33.04;100804.91;105563;1286;59336;-85
2023/06/26 07:51:08;;;;;;;5.50;4.20;;;;;;;41.71;31.78;100805.38;105294;1286;61123;-85
2023/06/26 07:53:54;;;;;;;4.30;3.70;;;;;;;43.18;30.97;100804.66;105375;1285;74088;-85
2023/06/26 07:56:57;;;;;;;4.90;3.90;;;;;;;44.35;30.17;100806.30;105524;1285;67542;-85
2023/06/26 07:59:43;;;;;;;4.20;3.90;;;;;;;45.36;29.97;100806.19;105295;1287;71309;-86
2023/06/26 08:02:29;;;;;;;4.00;3.70;;;;;;;46.16;29.46;100799.29;105462;1290;61320;-85
2023/06/26 08:05:15;;;;;;;6.30;4.00;;;;;;;46.87;28.81;100804.06;105449;1286;63685;-85
2023/06/26 08:08:03;;;;;;;4.70;4.20;;;;;;;47.51;28.34;100801.55;105316;1289;73280;-85
2023/06/26 08:10:49;;;;;;;4.70;4.30;;;;;;;47.75;27.75;100793.38;105355;1288;60468;-85
2023/06/26 08:13:35;;;;;;;4.50;4.10;;;;;;;48.21;27.34;100795.50;105273;1286;62678;-85
2023/06/26 08:16:21;;;;;;;5.00;4.70;;;;;;;48.66;26.55;100793.40;105330;1286;61318;-85
2023/06/26 08:19:08;;;;;;;4.90;4.70;;;;;;;49.15;26.11;100793.88;105309;1286;59636;-85
2023/06/26 08:21:54;;;;;;;5.70;5.40;;;;;;;49.63;25.67;100790.33;105440;1286;66155;-85
2023/06/26 08:24:41;;;;;;;5.70;5.40;;;;;;;50.35;25.15;100790.34;105385;1287;59189;-85
2023/06/26 08:27:27;;;;;;;5.80;5.50;;;;;;;51.13;24.40;100784.19;105387;1284;63047;-85
2023/06/26 08:30:14;;;;;;;6.50;6.10;;;;;;;51.78;23.70;100777.59;105512;1286;61321;-85
2023/06/26 08:33:00;;;;;;;6.70;6.30;;;;;;;52.15;23.33;100771.30;105494;1286;59320;-86
2023/06/26 08:35:46;;;;;;;10.10;6.80;;;;;;;52.51;22.71;100766.84;105396;1289;64598;-87
2023/06/26 08:38:32;;;;;;;5.10;4.70;;;;;;;52.55;21.82;100765.90;105406;1287;61215;-86
2023/06/26 08:41:19;;;;;;;5.60;5.40;;;;;;;51.52;21.55;100764.37;105332;1286;62614;-85
2023/06/26 08:44:05;;;;;;;5.80;5.50;;;;;;;51.36;21.31;100766.38;105569;1288;61244;-86
2023/06/26 08:46:52;;;;;;;7.00;6.60;;;;;;;51.95;20.57;100765.28;105522;1286;60034;-85
2023/06/26 08:49:52;;;;;;;6.40;5.60;;;;;;;52.53;20.08;100763.49;105490;1288;65730;-86
2023/06/26 08:52:57;;;;;;;4.90;4.50;;;;;;;51.43;19.33;100761.27;105364;1287;61249;-85
2023/06/26 08:55:44;;;;;;;5.20;4.80;;;;;;;49.04;19.44;100760.96;105564;1286;72542;-85
2023/06/26 08:58:30;;;;;;;4.50;4.20;;;;;;;48.75;19.05;100757.92;105508;1286;61255;-85
2023/06/26 09:01:18;;;;;;;4.40;4.10;;;;;;;46.45;18.91;100754.86;105581;1285;61183;-85
2023/06/26 09:04:05;;;;;;;4.10;3.80;;;;;;;44.01;18.90;100744.75;105501;1286;73229;-84
2023/06/26 09:06:52;;;;;;;3.90;3.70;;;;;;;42.25;19.10;100742.32;105355;1286;67338;-85
2023/06/26 09:09:38;;;;;;;3.70;3.40;;;;;;;40.76;19.37;100742.84;105537;1284;71160;-85
2023/06/26 09:12:27;;;;;;;5.90;3.60;;;;;;;39.54;19.62;100734.77;105525;1286;60161;-85
2023/06/26 09:15:15;;;;;;;3.90;3.50;;;;;;;38.57;19.85;100727.08;105448;1285;61604;-84
2023/06/26 09:18:02;;;;;;;3.70;3.00;;;;;;;37.42;19.72;100723.98;105554;1286;73652;-84
2023/06/26 09:20:49;;;;;;;3.90;3.50;;;;;;;36.36;20.28;100721.70;105387;1287;68554;-84
2023/06/26 09:23:36;;;;;;;3.60;3.30;;;;;;;35.62;20.56;100718.03;105517;1286;72602;-84
2023/06/26 09:26:22;;;;;;;5.10;3.20;;;;;;;35.11;21.08;100713.48;105378;1286;61474;-84
2023/06/26 09:29:10;;;;;;;3.60;3.30;;;;;;;34.71;21.49;100708.26;105441;1286;59927;-84
2023/06/26 09:31:56;;;;;;;3.30;3.10;;;;;;;34.22;21.67;100706.14;105425;1286;73341;-84
2023/06/26 09:34:46;;;;;;;3.70;3.40;;;;;;;33.66;22.18;100707.39;105529;1286;67152;-84
2023/06/26 09:37:34;;;;;;;5.10;3.30;;;;;;;33.16;22.50;100707.00;105504;1286;71711;-84
2023/06/26 09:40:20;;;;;;;5.00;3.60;;;;;;;32.69;22.62;100708.78;105415;1286;61497;-84
2023/06/26 09:43:06;;;;;;;;;;;;;;;32.35;22.99;100707.91;105536;1288;61146;-83
2023/06/26 09:45:54;;;;;;;3.60;3.30;;;;;;;32.00;23.08;100697.95;105508;1286;73892;-83
2023/06/26 09:48:40;;;;;;;3.50;3.30;;;;;;;31.78;23.52;100700.09;105551;1285;67337;-83
2023/06/26 09:51:26;;;;;;;;;;;;;;;31.53;23.90;100694.06;105472;1286;71769;-85
2023/06/26 09:54:12;;;;;;;6.40;3.90;;;;;;;31.22;24.03;100695.66;105485;1284;61211;-84
2023/06/26 09:57:13;;;;;;;4.20;3.80;;;;;;;30.94;24.26;100696.41;105345;1285;61396;-85
2023/06/26 10:00:04;;;;;;;4.00;3.70;;;;;;;30.55;24.83;100692.86;105324;1286;75249;-84
2023/06/26 10:02:50;;;;;;;4.30;3.40;;;;;;;30.27;25.26;100690.45;105601;1285;68754;-84
2023/06/26 10:05:38;;;;;;;5.70;3.60;;;;;;;30.20;25.58;100690.73;105412;1286;71303;-85
2023/06/26 10:08:25;;;;;;;3.80;3.50;;;;;;;30.15;25.79;100693.05;105482;1286;61236;-84
2023/06/26 10:11:16;;;;;;;3.70;3.50;;;;;;;29.94;25.78;100690.11;105493;1285;61747;-84
2023/06/26 10:14:05;;;;;;;4.10;3.70;;;;;;;29.82;26.25;100687.92;105388;1285;75153;-84
2023/06/26 10:16:51;;;;;;;3.90;3.70;;;;;;;29.71;26.32;100685.91;105355;1287;68078;-84
2023/06/26 10:19:38;;;;;;;7.30;3.80;;;;;;;29.69;26.87;100685.75;105545;1286;72508;-84
2023/06/26 10:22:29;;;;;;;3.60;3.30;;;;;;;29.74;26.99;100681.91;105332;1286;61308;-84
2023/06/26 10:25:19;;;;;;;3.90;3.50;;;;;;;29.68;27.16;100683.70;105562;1286;59741;-84
2023/06/26 10:28:07;;;;;;;3.60;3.30;;;;;;;29.61;27.65;100681.52;105374;1286;76271;-84
2023/06/26 10:30:54;;;;;;;4.60;3.60;;;;;;;29.64;27.84;100676.77;105334;1287;68307;-84
2023/06/26 10:33:41;;;;;;;3.60;3.30;;;;;;;29.64;28.10;100679.10;105343;1285;71179;-84
2023/06/26 10:36:28;;;;;;;;;;;;;;;29.60;28.18;100677.95;105469;1286;61308;-85
2023/06/26 10:39:14;;;;;;;3.70;3.40;;;;;;;29.54;28.22;100675.65;105466;1285;63495;-84
2023/06/26 10:42:10;;;;;;;3.60;3.30;;;;;;;29.55;28.53;100674.13;105475;1286;73097;-84
2023/06/26 10:45:09;;;;;;;4.00;3.70;;;;;;;29.56;28.69;100670.16;105457;1286;67346;-84
2023/06/26 10:47:57;;;;;;;4.40;3.20;;;;;;;29.58;28.79;100665.70;105498;1285;71761;-84
2023/06/26 10:50:48;;;;;;;3.80;3.20;;;;;;;29.60;29.35;100664.97;105226;1286;61294;-84
2023/06/26 10:53:35;;;;;;;3.20;3.00;;;;;;;29.63;29.28;100660.66;105269;1286;61721;-84
2023/06/26 10:56:21;;;;;;;3.30;2.90;;;;;;;29.62;29.52;100655.34;105566;1284;74373;-84
2023/06/26 10:59:15;;;;;;;3.20;3.00;;;;;;;29.61;29.74;100655.45;105377;1286;67433;-84
2023/06/26 11:02:05;;;;;;;4.20;3.60;;;;;;;29.55;29.77;100654.58;105412;1285;71155;-84
2023/06/26 11:04:54;;;;;;;3.50;3.30;;;;;;;29.52;29.99;100653.94;105453;1286;61353;-84
2023/06/26 11:08:04;;;;;;;3.50;3.20;;;;;;;29.51;30.25;100655.62;105424;1285;63169;-84
2023/06/26 11:10:55;;;;;;;3.90;3.20;;;;;;;29.45;30.33;100653.73;105337;1289;74550;-84
2023/06/26 11:13:45;;;;;;;3.30;3.00;;;;;;;29.39;30.38;100652.39;105476;1288;68351;-84
2023/06/26 11:16:32;;;;;;;3.50;3.30;;;;;;;29.27;30.52;100649.04;105361;1286;73386;-84
2023/06/26 11:19:19;;;;;;;3.80;3.40;;;;;;;29.18;30.66;100649.20;105347;1288;61225;-84
2023/06/26 11:22:06;;;;;;;3.60;3.30;;;;;;;29.10;30.95;100644.50;105290;1288;59218;-84
2023/06/26 11:24:53;;;;;;;3.90;3.60;;;;;;;29.06;30.91;100643.56;105479;1288;73415;-84
2023/06/26 11:27:41;;;;;;;3.70;3.40;;;;;;;29.01;31.16;100640.35;105428;1287;68725;-84
2023/06/26 11:30:27;;;;;;;3.50;3.20;;;;;;;28.95;31.27;100633.96;105247;1288;71272;-84
2023/06/26 11:33:13;;;;;;;4.30;3.40;;;;;;;28.86;31.40;100634.98;105394;1288;60234;-85
2023/06/26 11:36:08;;;;;;;4.30;3.90;;;;;;;28.80;31.62;100629.86;105311;1289;61199;-84
2023/06/26 11:38:58;;;;;;;3.50;3.30;;;;;;;28.78;31.76;100630.53;105307;1286;73592;-84
2023/06/26 11:41:45;;;;;;;3.90;2.90;;;;;;;28.78;31.88;100623.30;105459;1286;71434;-84
2023/06/26 11:44:31;;;;;;;;;;;;;;;28.82;32.05;100620.10;105484;1286;72494;-84
2023/06/26 11:47:20;;;;;;;3.80;3.40;;;;;;;28.81;32.20;100616.41;105433;1287;60128;-84
2023/06/26 11:50:06;;;;;;;3.80;3.50;;;;;;;28.77;32.32;100610.05;105344;1287;61332;-84
2023/06/26 11:52:57;;;;;;;4.20;3.90;;;;;;;28.75;32.47;100602.29;105352;1288;73578;-84
2023/06/26 11:55:43;;;;;;;6.30;5.10;;;;;;;28.75;32.70;100601.88;105363;1286;70856;-84
2023/06/26 11:58:29;;;;;;;4.60;3.90;;;;;;;28.74;33.01;100599.12;105316;1288;71245;-84
2023/06/26 12:01:16;;;;;;;3.90;3.30;;;;;;;28.66;32.99;100599.49;105498;1287;61292;-84
2023/06/26 12:04:04;;;;;;;4.20;3.90;;;;;;;28.61;33.12;100601.63;105311;1288;63426;-84
2023/06/26 12:06:56;;;;;;;4.10;3.70;;;;;;;28.54;33.13;100601.02;105485;1287;73194;-84
2023/06/26 12:09:45;;;;;;;3.90;3.60;;;;;;;28.38;33.03;100597.90;105487;1285;68334;-84
2023/06/26 12:12:33;;;;;;;3.50;3.10;;;;;;;28.32;33.26;100595.44;105320;1291;72133;-84
2023/06/26 12:15:19;;;;;;;4.90;4.40;;;;;;;28.31;33.39;100588.04;105340;1288;61783;-84
2023/06/26 12:18:09;;;;;;;3.90;3.60;;;;;;;28.31;33.66;100582.00;105362;1286;59479;-84
2023/06/26 12:20:55;;;;;;;3.70;3.40;;;;;;;28.34;33.79;100574.44;105389;1287;73222;-84
2023/06/26 12:23:41;;;;;;;3.90;3.40;;;;;;;28.41;34.03;100577.41;105493;1286;67918;-84
2023/06/26 12:26:33;;;;;;;5.90;3.50;;;;;;;28.46;33.87;100571.44;105441;1286;71980;-84
2023/06/26 12:29:21;;;;;;;6.90;3.90;;;;;;;28.48;33.80;100574.29;105419;1286;59626;-84
2023/06/26 12:32:15;;;;;;;8.80;3.60;;;;;;;28.44;34.04;100568.67;105284;1286;60334;-84
2023/06/26 12:35:01;;;;;;;3.80;3.20;;;;;;;28.47;34.20;100565.00;105335;1286;73212;-84
2023/06/26 12:37:47;;;;;;;5.10;3.30;;;;;;;28.54;34.35;100564.66;105526;1287;67512;-85
2023/06/26 12:40:34;;;;;;;4.10;3.10;;;;;;;28.57;34.35;100562.98;105257;1286;71138;-85
2023/06/26 12:43:23;;;;;;;4.00;3.70;;;;;;;28.61;34.58;100556.88;105315;1286;61296;-85
2023/06/26 12:46:10;;;;;;;4.10;3.70;;;;;;;28.69;34.69;100557.02;105540;1285;61186;-85
2023/06/26 12:48:58;;;;;;;3.80;3.50;;;;;;;28.75;34.50;100551.52;105385;1286;73844;-85
2023/06/26 12:51:44;;;;;;;5.20;3.10;;;;;;;28.73;34.53;100549.54;106231;1287;68445;-85
2023/06/26 12:54:30;;;;;;;5.40;3.70;;;;;;;28.68;34.51;100547.17;105508;1285;72103;-85
2023/06/26 12:57:16;;;;;;;4.10;3.70;;;;;;;28.61;34.71;100542.35;105315;1286;59705;-85
2023/06/26 13:00:03;;;;;;;6.40;3.70;;;;;;;28.58;34.97;100537.66;105345;1287;62015;-85
2023/06/26 13:02:49;;;;;;;3.80;3.60;;;;;;;28.66;35.25;100537.45;105257;1287;73429;-84
2023/06/26 13:05:35;;;;;;;3.80;3.50;;;;;;;28.74;34.99;100535.14;105401;1286;67240;-84
2023/06/26 13:08:21;;;;;;;3.80;3.50;;;;;;;28.76;34.96;100533.98;105331;1286;72399;-84
2023/06/26 13:11:07;;;;;;;3.50;3.30;;;;;;;28.78;34.95;100533.61;105291;1285;61420;-84
2023/06/26 13:13:53;;;;;;;5.90;3.30;;;;;;;28.81;35.13;100526.14;105455;1286;59735;-84
2023/06/26 13:16:40;;;;;;;6.30;3.40;;;;;;;28.86;35.23;100521.28;105378;1285;73268;-84